Weather reports worldwide

Advertisment
Passo Rolle, Italy (16021): temperature & dewpoint: 13.08.2019 00:00:00 - 19.08.2019 00:00:00 (CEST)Passo Rolle, Italy (16021): wind speed: 13.08.2019 00:00:00 - 19.08.2019 00:00:00 (CEST)Passo Rolle, Italy (16021): wind direction: 13.08.2019 00:00:00 - 19.08.2019 00:00:00 (CEST)Passo Rolle, Italy (16021): visibility: 13.08.2019 00:00:00 - 19.08.2019 00:00:00 (CEST)
Date & Time tt [°C] td [°C] ff [km/h] ff [kn] dd vv [km]
19.08.2019 00:00:00 - - - - - -
18.08.2019 23:00:00 12,2 11,3 13 7 ESE 0,1
18.08.2019 22:00:00 - - - - - -
18.08.2019 21:00:00 - - - - - -
18.08.2019 20:00:00 14,6 13,7 21 11 SE 0,1
18.08.2019 19:00:00 15,0 14,0 21 11 ESE 0,8
18.08.2019 18:00:00 - - - - - -
18.08.2019 17:00:00 16,6 10,7 22 12 SE 80
18.08.2019 16:00:00 16,0 10,0 21 11 SE 10
18.08.2019 15:00:00 - - - - - -
18.08.2019 14:00:00 16,0 10,5 18 10 ESE 75
18.08.2019 13:00:00 16,0 10,0 18 10 ESE 10
18.08.2019 12:00:00 15,0 9,0 21 11 ESE 10
18.08.2019 11:00:00 14,6 8,8 15 8 SE 75
18.08.2019 10:00:00 12,0 8,0 4 2 SSW 10
18.08.2019 09:00:00 10,0 6,0 0 0 N 10
18.08.2019 08:00:00 10,6 6,2 15 8 ESE 75
18.08.2019 07:00:00 10,0 7,0 13 7 ESE 10
18.08.2019 06:00:00 10,0 8,0 8 4 N 10
18.08.2019 05:00:00 10,0 9,1 8 4 N 20
18.08.2019 04:00:00 - - - - - -
18.08.2019 03:00:00 - - - - - -
18.08.2019 02:00:00 10,8 10,2 9 5 NNW 0,6
18.08.2019 01:00:00 - - - - - -
18.08.2019 00:00:00 - - - - - -
17.08.2019 23:00:00 10,8 10,0 5 3 NNW 10
17.08.2019 22:00:00 - - - - - -
17.08.2019 21:00:00 - - - - - -
17.08.2019 20:00:00 13,2 11,9 11 6 SE 0,1
17.08.2019 19:00:00 14,0 12,0 9 5 ESE 10
17.08.2019 18:00:00 14,0 11,0 15 8 ESE 10
17.08.2019 17:00:00 13,8 10,2 21 11 SE 30
17.08.2019 16:00:00 15,0 10,0 16 9 SE 10
17.08.2019 15:00:00 15,0 10,0 18 10 SE 10
17.08.2019 14:00:00 15,4 10,2 11 6 SE 30
17.08.2019 13:00:00 15,0 9,0 13 7 ESE 10
17.08.2019 12:00:00 14,0 8,0 9 5 SE 10
17.08.2019 11:00:00 12,2 8,7 5 3 NW 30
17.08.2019 10:00:00 10,0 8,0 9 5 NNW 10
17.08.2019 09:00:00 10,0 8,0 8 4 WNW 10
17.08.2019 08:00:00 8,8 7,7 5 3 NNW 10
17.08.2019 07:00:00 8,0 8,0 5 3 N 0,2
17.08.2019 06:00:00 9,0 8,0 11 6 NNW 0,1
17.08.2019 05:00:00 8,8 7,6 11 6 NNW 0,3
17.08.2019 04:00:00 - - - - - -
17.08.2019 03:00:00 - - - - - -
17.08.2019 02:00:00 8,0 6,9 2 1 E 10
17.08.2019 01:00:00 - - - - - -
17.08.2019 00:00:00 - - - - - -
16.08.2019 23:00:00 9,0 8,2 4 2 E 10
16.08.2019 22:00:00 - - - - - -
16.08.2019 21:00:00 - - - - - -
16.08.2019 20:00:00 10,8 8,4 18 10 SE 30
16.08.2019 19:00:00 11,0 8,0 21 11 SE 10
16.08.2019 18:00:00 12,0 8,0 24 13 SE 10
16.08.2019 17:00:00 13,0 7,7 22 12 SE 50
16.08.2019 16:00:00 14,0 7,0 24 13 SE 10
16.08.2019 15:00:00 13,0 6,0 18 10 SE 10
16.08.2019 14:00:00 13,6 3,4 13 7 SSE 50
16.08.2019 13:00:00 12,0 1,0 8 4 W 10
16.08.2019 12:00:00 12,0 3,0 8 4 WSW 10
16.08.2019 11:00:00 10,8 4,1 9 5 W 50
16.08.2019 10:00:00 9,0 4,0 8 4 W 10
16.08.2019 09:00:00 9,0 4,0 5 3 NW 10
16.08.2019 08:00:00 7,2 1,7 5 3 NNW 75
16.08.2019 07:00:00 7,0 5,0 9 5 NW 10
16.08.2019 06:00:00 7,0 5,0 8 4 N 10
16.08.2019 05:00:00 6,4 5,5 11 6 NNW 10
16.08.2019 04:00:00 - - - - - -
16.08.2019 03:00:00 - - - - - -
16.08.2019 02:00:00 7,2 5,5 8 4 WSW 0,5
16.08.2019 01:00:00 - - - - - -
16.08.2019 00:00:00 - - - - - -
15.08.2019 23:00:00 7,8 5,4 22 12 NE 0,7
15.08.2019 22:00:00 - - - - - -
15.08.2019 21:00:00 - - - - - -
15.08.2019 20:00:00 10,8 10,4 18 10 SSE 0,2
15.08.2019 19:00:00 11,0 9,0 18 10 SE 10
15.08.2019 18:00:00 13,0 8,0 22 12 SE 10
15.08.2019 17:00:00 13,2 8,1 21 11 SE 30
15.08.2019 16:00:00 14,0 8,0 21 11 ESE 10
15.08.2019 15:00:00 13,0 8,0 21 11 SE 10
15.08.2019 14:00:00 13,0 6,8 13 7 SE 30
15.08.2019 13:00:00 13,0 7,0 11 6 SE 10
15.08.2019 12:00:00 12,0 5,0 5 3 SW 10
15.08.2019 11:00:00 11,0 5,1 4 2 N 20
15.08.2019 10:00:00 10,0 6,0 8 4 WNW 10
15.08.2019 09:00:00 9,0 7,0 4 2 NNW 10
15.08.2019 08:00:00 9,0 6,8 5 3 NNW 0,8
15.08.2019 07:00:00 8,0 7,0 5 3 NNW 0,3
15.08.2019 06:00:00 8,0 7,0 4 2 E 0,1
15.08.2019 05:00:00 8,0 6,6 4 2 W 0,1
15.08.2019 04:00:00 - - - - - -
15.08.2019 03:00:00 - - - - - -
15.08.2019 02:00:00 8,0 6,8 9 5 ESE 0,2
15.08.2019 01:00:00 - - - - - -
15.08.2019 00:00:00 - - - - - -
14.08.2019 23:00:00 10,8 10,0 9 5 ESE 0,1
14.08.2019 22:00:00 - - - - - -
14.08.2019 21:00:00 - - - - - -
14.08.2019 20:00:00 10,8 9,4 18 10 SE 20
14.08.2019 19:00:00 11,0 9,0 21 11 SE 10
14.08.2019 18:00:00 13,0 10,0 22 12 SE 10
14.08.2019 17:00:00 13,6 7,8 15 8 SSE 80
14.08.2019 16:00:00 14,0 1,0 11 6 WNW 10
14.08.2019 15:00:00 13,0 7,0 16 9 SE 10
14.08.2019 14:00:00 13,0 4,7 11 6 S 50
14.08.2019 13:00:00 13,0 3,0 5 3 WSW 10
14.08.2019 12:00:00 12,0 5,0 11 6 W 10
14.08.2019 11:00:00 9,8 4,8 13 7 W 50
14.08.2019 10:00:00 8,0 4,0 9 5 NW 10
14.08.2019 09:00:00 7,0 4,0 13 7 NNW 10
14.08.2019 08:00:00 6,4 4,2 11 6 NW 35
14.08.2019 07:00:00 6,0 4,0 16 9 WNW 10
14.08.2019 06:00:00 7,0 5,0 15 8 NNW 10
14.08.2019 05:00:00 6,8 5,4 11 6 N 12
14.08.2019 04:00:00 - - - - - -
14.08.2019 03:00:00 - - - - - -
14.08.2019 02:00:00 8,0 6,8 13 7 N 1,5
14.08.2019 01:00:00 - - - - - -
14.08.2019 00:00:00 - - - - - -
13.08.2019 23:00:00 - - - - - -
13.08.2019 22:00:00 - - - - - -
13.08.2019 21:00:00 - - - - - -
13.08.2019 20:00:00 13,2 9,5 16 9 S 30
13.08.2019 19:00:00 14,0 11,0 16 9 SSE 10
13.08.2019 18:00:00 14,0 11,0 18 10 SSE 10
13.08.2019 17:00:00 14,0 11,9 13 7 SSE 35
13.08.2019 16:00:00 15,0 13,0 9 5 SSE 10
13.08.2019 15:00:00 15,0 11,0 21 11 SE 10
13.08.2019 14:00:00 14,8 10,2 21 11 SE 30
13.08.2019 13:00:00 15,0 10,0 18 10 SE 10
13.08.2019 12:00:00 15,0 11,0 21 11 SE 10
13.08.2019 11:00:00 14,6 10,4 11 6 SSE 35
13.08.2019 10:00:00 14,0 10,0 11 6 E 10
13.08.2019 09:00:00 12,0 10,0 11 6 SSE 10
13.08.2019 08:00:00 12,0 10,3 11 6 SSE 35
13.08.2019 07:00:00 11,0 10,0 9 5 SE 10
13.08.2019 06:00:00 11,0 10,0 4 2 E 10
13.08.2019 05:00:00 10,8 9,7 4 2 ENE 12
13.08.2019 04:00:00 - - - - - -
13.08.2019 03:00:00 - - - - - -
13.08.2019 02:00:00 12,2 9,2 5 3 NNE 10
13.08.2019 01:00:00 - - - - - -
13.08.2019 00:00:00 - - - - - -

tt = temperature
td = dewpoint
ff = wind speed
dd = wind direction
vv = visibility

Next stations